Time;durP1;ratioP1;P1;durP2;ratioP2;P2;SDS_P1;SDS_P2;PMS_P1;PMS_P2;Temp;Humidity;BMP_temperature;BMP_pressure;BME280_temperature;BME280_humidity;BME280_pressure;Samples;Min_cycle;Max_cycle;Signal;HPM_P1;HPM_P2
2023/08/27 00:01:25;;;;;;;;;;;23.10;56.10;;;;;;5102875;28;19931;-58
2023/08/27 00:03:55;;;;;;;;;;;23.10;56.00;;;;;;5113224;28;19928;-58
2023/08/27 00:06:22;;;;;;;;;;;23.10;56.00;;;;;;5128407;27;19923;-58
2023/08/27 00:08:50;;;;;;;;;;;23.10;56.00;;;;;;5100781;27;19923;-58
2023/08/27 00:11:16;;;;;;;;;;;23.20;56.10;;;;;;5115816;27;19924;-58
2023/08/27 00:13:43;;;;;;;;;;;23.10;55.90;;;;;;5099006;27;19927;-58
2023/08/27 00:16:10;;;;;;;;;;;23.10;55.90;;;;;;5118513;27;19923;-58
2023/08/27 00:18:37;;;;;;;;;;;23.10;55.90;;;;;;5119622;27;19930;-57
2023/08/27 00:21:05;;;;;;;;;;;23.10;55.90;;;;;;5117864;27;19946;-58
2023/08/27 00:23:32;;;;;;;;;;;23.10;55.80;;;;;;5095861;28;19970;-58
2023/08/27 00:25:58;;;;;;;;;;;23.10;55.80;;;;;;5113137;27;19931;-58
2023/08/27 00:28:25;;;;;;;;;;;23.10;55.80;;;;;;5096340;28;19928;-58
2023/08/27 00:30:52;;;;;;;;;;;23.10;55.80;;;;;;5100031;27;19928;-58
2023/08/27 00:33:19;;;;;;;;;;;23.10;55.80;;;;;;5111861;27;20391;-58
2023/08/27 00:35:47;;;;;;;;;;;23.10;55.80;;;;;;5105918;27;19928;-58
2023/08/27 00:38:15;;;;;;;;;;;23.10;55.80;;;;;;5096622;28;19930;-58
2023/08/27 00:40:42;;;;;;;;;;;23.10;55.80;;;;;;5121593;27;20200;-58
2023/08/27 00:43:08;;;;;;;;;;;23.10;55.70;;;;;;5100671;28;19928;-58
2023/08/27 00:45:35;;;;;;;;;;;23.10;55.70;;;;;;5094737;28;19924;-58
2023/08/27 00:48:02;;;;;;;;;;;23.10;55.70;;;;;;5096331;28;19930;-58
2023/08/27 00:50:29;;;;;;;;;;;23.10;55.70;;;;;;5098881;28;19919;-58
2023/08/27 00:52:56;;;;;;;;;;;23.10;55.70;;;;;;5103911;28;19928;-57
2023/08/27 00:55:24;;;;;;;;;;;23.10;55.70;;;;;;5095395;28;20282;-58
2023/08/27 00:57:51;;;;;;;;;;;23.10;55.60;;;;;;5121127;27;20026;-58
2023/08/27 01:00:18;;;;;;;;;;;23.10;55.60;;;;;;5115789;27;19930;-58
2023/08/27 01:02:46;;;;;;;;;;;23.00;55.40;;;;;;5126080;27;19951;-58
2023/08/27 01:05:13;;;;;;;;;;;23.10;55.60;;;;;;5100779;27;20020;-58
2023/08/27 01:07:41;;;;;;;;;;;23.10;55.50;;;;;;5105449;28;19924;-58
2023/08/27 01:10:10;;;;;;;;;;;23.10;55.50;;;;;;5113721;28;19924;-58
2023/08/27 01:12:42;;;;;;;;;;;23.10;55.50;;;;;;5095919;28;19930;-58
2023/08/27 01:15:09;;;;;;;;;;;23.10;55.50;;;;;;5088926;28;19977;-58
2023/08/27 01:17:36;;;;;;;;;;;23.10;55.50;;;;;;5097492;28;19935;-58
2023/08/27 01:20:05;;;;;;;;;;;23.10;55.40;;;;;;5126216;27;19932;-58
2023/08/27 01:22:33;;;;;;;;;;;23.00;55.30;;;;;;5097448;28;19923;-58
2023/08/27 01:25:00;;;;;;;;;;;23.10;55.40;;;;;;5126758;27;19924;-58
2023/08/27 01:27:27;;;;;;;;;;;23.00;55.40;;;;;;5101836;28;19924;-58
2023/08/27 01:29:55;;;;;;;;;;;23.10;55.40;;;;;;5095027;28;19959;-58
2023/08/27 01:32:24;;;;;;;;;;;23.10;55.40;;;;;;5094482;28;19931;-58
2023/08/27 01:34:50;;;;;;;;;;;23.00;55.30;;;;;;5093852;28;19924;-58
2023/08/27 01:37:17;;;;;;;;;;;23.10;55.30;;;;;;5114907;27;19924;-58
2023/08/27 01:39:45;;;;;;;;;;;23.00;55.20;;;;;;5121512;27;19920;-58
2023/08/27 01:42:12;;;;;;;;;;;23.10;55.30;;;;;;5101511;27;19927;-58
2023/08/27 01:44:39;;;;;;;;;;;23.10;55.30;;;;;;5107457;27;19927;-58
2023/08/27 01:47:06;;;;;;;;;;;23.10;55.20;;;;;;5111957;28;19939;-58
2023/08/27 01:49:33;;;;;;;;;;;23.10;55.20;;;;;;5111921;28;19981;-58
2023/08/27 01:51:59;;;;;;;;;;;23.10;55.20;;;;;;5139200;27;20002;-58
2023/08/27 01:54:26;;;;;;;;;;;23.00;55.10;;;;;;5125335;27;19935;-58
2023/08/27 01:56:54;;;;;;;;;;;23.10;55.10;;;;;;5111758;27;19927;-58
2023/08/27 01:59:21;;;;;;;;;;;23.00;55.10;;;;;;5129106;27;19924;-58
2023/08/27 02:01:48;;;;;;;;;;;23.00;55.00;;;;;;5111786;27;19928;-58
2023/08/27 02:04:14;;;;;;;;;;;23.00;55.00;;;;;;5099893;28;19928;-58
2023/08/27 02:06:41;;;;;;;;;;;23.00;55.00;;;;;;5093872;28;19924;-58
2023/08/27 02:09:08;;;;;;;;;;;23.00;54.90;;;;;;5099633;27;19927;-58
2023/08/27 02:11:34;;;;;;;;;;;23.00;54.90;;;;;;5124646;27;19933;-58
2023/08/27 02:14:03;;;;;;;;;;;23.00;54.90;;;;;;5112079;28;19928;-58
2023/08/27 02:16:30;;;;;;;;;;;23.00;54.90;;;;;;5104518;27;19923;-58
2023/08/27 02:18:57;;;;;;;;;;;23.00;54.90;;;;;;5098422;27;19946;-58
2023/08/27 02:21:24;;;;;;;;;;;23.00;54.80;;;;;;5118888;27;19935;-58
2023/08/27 02:23:51;;;;;;;;;;;23.00;54.80;;;;;;5104678;27;19923;-58
2023/08/27 02:26:18;;;;;;;;;;;23.00;54.80;;;;;;5108564;27;20273;-58
2023/08/27 02:28:46;;;;;;;;;;;23.00;54.80;;;;;;5105731;27;19927;-58
2023/08/27 02:31:14;;;;;;;;;;;23.00;54.80;;;;;;5107813;27;19928;-58
2023/08/27 02:33:41;;;;;;;;;;;23.00;54.80;;;;;;5097670;27;19924;-58
2023/08/27 02:36:08;;;;;;;;;;;23.00;54.70;;;;;;5102999;27;20018;-58
2023/08/27 02:38:35;;;;;;;;;;;23.00;54.80;;;;;;5106402;27;20037;-58
2023/08/27 02:41:01;;;;;;;;;;;23.00;54.70;;;;;;5103059;27;19976;-58
2023/08/27 02:43:28;;;;;;;;;;;23.00;54.70;;;;;;5128111;27;19924;-58
2023/08/27 02:45:55;;;;;;;;;;;23.00;54.70;;;;;;5127893;27;19976;-58
2023/08/27 02:48:23;;;;;;;;;;;23.00;54.60;;;;;;5105790;27;19923;-58
2023/08/27 02:50:50;;;;;;;;;;;23.00;54.60;;;;;;5117924;27;19928;-58
2023/08/27 02:53:17;;;;;;;;;;;23.00;54.60;;;;;;5125905;27;19980;-58
2023/08/27 02:55:44;;;;;;;;;;;23.00;54.60;;;;;;5128541;27;19928;-58
2023/08/27 02:58:10;;;;;;;;;;;23.00;54.60;;;;;;5102775;28;19927;-58
2023/08/27 03:00:39;;;;;;;;;;;23.00;54.50;;;;;;5102337;28;19936;-58
2023/08/27 03:03:07;;;;;;;;;;;23.00;54.50;;;;;;5111443;27;19931;-58
2023/08/27 03:05:35;;;;;;;;;;;23.00;54.50;;;;;;5102181;28;19924;-58
2023/08/27 03:08:02;;;;;;;;;;;23.00;54.50;;;;;;5077489;28;20296;-58
2023/08/27 03:10:29;;;;;;;;;;;22.90;54.40;;;;;;5107887;28;19961;-58
2023/08/27 03:12:56;;;;;;;;;;;22.90;54.40;;;;;;5106065;28;19973;-58
2023/08/27 03:15:22;;;;;;;;;;;23.00;54.50;;;;;;5123130;28;19984;-58
2023/08/27 03:17:49;;;;;;;;;;;22.90;54.30;;;;;;5104062;28;19931;-58
2023/08/27 03:20:16;;;;;;;;;;;22.90;54.40;;;;;;5107768;28;19928;-58
2023/08/27 03:22:45;;;;;;;;;;;22.90;54.40;;;;;;5101157;28;19928;-57
2023/08/27 03:25:11;;;;;;;;;;;22.90;54.30;;;;;;5135264;27;19930;-58
2023/08/27 03:27:38;;;;;;;;;;;22.90;54.30;;;;;;5100319;28;19934;-58
2023/08/27 03:30:05;;;;;;;;;;;22.90;54.30;;;;;;5110632;28;19923;-58
2023/08/27 03:32:32;;;;;;;;;;;22.90;54.30;;;;;;5093857;28;19924;-58
2023/08/27 03:34:59;;;;;;;;;;;22.90;54.30;;;;;;5105530;28;19936;-58
2023/08/27 03:37:26;;;;;;;;;;;22.90;54.30;;;;;;5097523;28;19924;-58
2023/08/27 03:39:54;;;;;;;;;;;22.90;54.30;;;;;;5110399;28;20381;-58
2023/08/27 03:42:21;;;;;;;;;;;22.90;54.30;;;;;;5102885;28;19924;-58
2023/08/27 03:44:47;;;;;;;;;;;22.90;54.40;;;;;;5095290;28;19924;-57
2023/08/27 03:47:14;;;;;;;;;;;22.90;54.40;;;;;;5104835;28;19973;-58
2023/08/27 03:49:41;;;;;;;;;;;22.90;54.40;;;;;;5105193;28;19923;-58
2023/08/27 03:52:08;;;;;;;;;;;22.90;54.30;;;;;;5115738;28;19923;-58
2023/08/27 03:54:34;;;;;;;;;;;22.90;54.30;;;;;;5105610;28;19924;-58
2023/08/27 03:57:03;;;;;;;;;;;22.90;54.30;;;;;;5112754;28;19924;-58
2023/08/27 03:59:30;;;;;;;;;;;22.90;54.30;;;;;;5092644;28;19935;-57
2023/08/27 04:01:57;;;;;;;;;;;22.90;54.30;;;;;;5114070;27;19973;-58
2023/08/27 04:04:23;;;;;;;;;;;22.90;54.30;;;;;;5111275;28;19930;-58
2023/08/27 04:06:50;;;;;;;;;;;22.90;54.30;;;;;;5115858;27;19931;-58
2023/08/27 04:09:17;;;;;;;;;;;22.90;54.40;;;;;;5109193;27;19924;-58
2023/08/27 04:11:44;;;;;;;;;;;22.90;54.40;;;;;;5108797;27;19924;-57
2023/08/27 04:14:12;;;;;;;;;;;22.90;54.30;;;;;;5109159;27;19923;-58
2023/08/27 04:16:38;;;;;;;;;;;22.90;54.30;;;;;;5104185;28;19932;-58
2023/08/27 04:19:05;;;;;;;;;;;22.90;54.30;;;;;;5113473;28;19928;-58
2023/08/27 04:21:32;;;;;;;;;;;22.90;54.30;;;;;;5105070;28;19923;-57
2023/08/27 04:23:59;;;;;;;;;;;22.90;54.30;;;;;;5108238;27;19931;-58
2023/08/27 04:26:26;;;;;;;;;;;22.90;54.30;;;;;;5126672;27;19975;-57
2023/08/27 04:28:54;;;;;;;;;;;22.90;54.30;;;;;;5108833;27;20285;-58
2023/08/27 04:31:23;;;;;;;;;;;22.90;54.30;;;;;;5107510;27;19923;-58
2023/08/27 04:33:50;;;;;;;;;;;22.90;54.30;;;;;;5103410;27;20380;-58
2023/08/27 04:36:16;;;;;;;;;;;22.90;54.30;;;;;;5110130;27;20282;-58
2023/08/27 04:38:43;;;;;;;;;;;22.90;54.30;;;;;;5100359;27;19931;-58
2023/08/27 04:41:10;;;;;;;;;;;22.90;54.20;;;;;;5106768;27;19944;-58
2023/08/27 04:43:37;;;;;;;;;;;22.90;54.20;;;;;;5108436;28;19923;-58
2023/08/27 04:46:04;;;;;;;;;;;22.90;54.20;;;;;;5088385;28;19924;-58
2023/08/27 04:48:33;;;;;;;;;;;22.90;54.20;;;;;;5098367;27;20407;-58
2023/08/27 04:51:00;;;;;;;;;;;22.80;54.10;;;;;;5108344;27;19935;-58
2023/08/27 04:53:27;;;;;;;;;;;22.90;54.10;;;;;;5108247;27;19928;-58
2023/08/27 04:55:54;;;;;;;;;;;22.90;54.10;;;;;;5106482;27;20007;-58
2023/08/27 04:58:21;;;;;;;;;;;22.90;54.10;;;;;;5128606;27;19931;-57
2023/08/27 05:00:49;;;;;;;;;;;22.90;54.10;;;;;;5114331;27;19928;-57
2023/08/27 05:03:16;;;;;;;;;;;22.90;54.10;;;;;;5117098;27;19924;-57
2023/08/27 05:05:44;;;;;;;;;;;22.90;54.10;;;;;;5112280;28;19976;-57
2023/08/27 05:08:11;;;;;;;;;;;22.90;54.10;;;;;;5118566;27;19927;-57
2023/08/27 05:10:38;;;;;;;;;;;22.90;54.10;;;;;;5117822;27;19924;-57
2023/08/27 05:13:05;;;;;;;;;;;22.90;54.10;;;;;;5117821;27;20438;-57
2023/08/27 05:15:32;;;;;;;;;;;22.90;54.10;;;;;;5103995;28;19924;-57
2023/08/27 05:17:58;;;;;;;;;;;22.90;54.10;;;;;;5112683;27;20414;-57
2023/08/27 05:20:25;;;;;;;;;;;22.80;54.00;;;;;;5121833;27;20352;-57
2023/08/27 05:22:53;;;;;;;;;;;22.90;54.00;;;;;;5102943;27;19923;-57
2023/08/27 05:25:20;;;;;;;;;;;22.90;54.10;;;;;;5104179;28;20281;-58
2023/08/27 05:27:47;;;;;;;;;;;22.90;54.00;;;;;;5112613;27;19950;-58
2023/08/27 05:30:14;;;;;;;;;;;22.80;53.90;;;;;;5109100;27;19930;-57
2023/08/27 05:32:41;;;;;;;;;;;22.80;53.90;;;;;;5115703;27;19963;-57
2023/08/27 05:35:08;;;;;;;;;;;22.80;53.90;;;;;;5122002;27;19955;-57
2023/08/27 05:37:35;;;;;;;;;;;22.80;53.90;;;;;;5113658;28;19965;-57
2023/08/27 05:40:05;;;;;;;;;;;22.80;53.90;;;;;;5104257;28;19923;-57
2023/08/27 05:42:31;;;;;;;;;;;22.80;53.90;;;;;;5100097;28;20316;-57
2023/08/27 05:44:58;;;;;;;;;;;22.80;53.80;;;;;;5125066;27;19928;-57
2023/08/27 05:47:26;;;;;;;;;;;22.80;53.90;;;;;;5100615;28;19924;-57
2023/08/27 05:49:53;;;;;;;;;;;22.80;53.80;;;;;;5123780;27;19928;-57
2023/08/27 05:52:20;;;;;;;;;;;22.80;53.90;;;;;;5108086;28;19928;-57
2023/08/27 05:54:46;;;;;;;;;;;22.80;53.80;;;;;;5104609;27;20348;-57
2023/08/27 05:57:15;;;;;;;;;;;22.80;53.90;;;;;;5098021;28;19985;-57
2023/08/27 05:59:42;;;;;;;;;;;22.80;53.90;;;;;;5103334;27;19924;-58
2023/08/27 06:02:09;;;;;;;;;;;22.80;53.80;;;;;;5107695;27;19931;-57
2023/08/27 06:04:35;;;;;;;;;;;22.80;53.90;;;;;;5106686;27;19923;-57
2023/08/27 06:07:02;;;;;;;;;;;22.80;53.90;;;;;;5106649;27;19972;-58
2023/08/27 06:09:29;;;;;;;;;;;22.80;53.90;;;;;;5108012;28;19988;-57
2023/08/27 06:11:57;;;;;;;;;;;22.80;53.80;;;;;;5119986;27;19924;-57
2023/08/27 06:14:25;;;;;;;;;;;22.80;53.80;;;;;;5109663;27;19970;-57
2023/08/27 06:16:52;;;;;;;;;;;22.80;53.80;;;;;;5104747;27;19927;-58
2023/08/27 06:19:19;;;;;;;;;;;22.80;53.90;;;;;;5102901;28;19924;-57
2023/08/27 06:21:46;;;;;;;;;;;22.80;53.90;;;;;;5103938;27;20422;-57
2023/08/27 06:24:13;;;;;;;;;;;22.80;53.90;;;;;;5109842;28;19927;-57
2023/08/27 06:26:40;;;;;;;;;;;22.80;53.90;;;;;;5117131;27;19924;-58
2023/08/27 06:29:06;;;;;;;;;;;22.80;53.90;;;;;;5106502;27;19976;-58
2023/08/27 06:31:35;;;;;;;;;;;22.80;53.90;;;;;;5098874;27;20019;-57
2023/08/27 06:34:01;;;;;;;;;;;22.80;54.00;;;;;;5133321;27;19927;-58
2023/08/27 06:36:28;;;;;;;;;;;22.80;53.90;;;;;;5098701;27;19976;-57
2023/08/27 06:38:55;;;;;;;;;;;22.80;53.90;;;;;;5115384;27;19923;-58
2023/08/27 06:41:22;;;;;;;;;;;22.80;53.90;;;;;;5112339;27;19927;-58
2023/08/27 06:43:49;;;;;;;;;;;22.80;53.90;;;;;;5097488;27;19945;-57
2023/08/27 06:46:16;;;;;;;;;;;22.80;53.90;;;;;;5095746;28;20046;-58
2023/08/27 06:48:44;;;;;;;;;;;22.80;54.00;;;;;;5094376;27;19945;-58
2023/08/27 06:51:11;;;;;;;;;;;22.80;53.90;;;;;;5107456;28;19927;-58
2023/08/27 06:53:38;;;;;;;;;;;22.80;54.00;;;;;;5099865;28;19927;-58
2023/08/27 06:56:05;;;;;;;;;;;22.80;54.00;;;;;;5097647;27;20433;-58
2023/08/27 06:58:31;;;;;;;;;;;22.80;54.00;;;;;;5095095;28;19935;-58
2023/08/27 07:00:58;;;;;;;;;;;22.80;53.90;;;;;;5121169;27;20019;-58
2023/08/27 07:03:25;;;;;;;;;;;22.80;54.00;;;;;;5116020;27;19980;-58
2023/08/27 07:05:53;;;;;;;;;;;22.80;54.00;;;;;;5113204;28;19927;-58
2023/08/27 07:08:20;;;;;;;;;;;22.80;54.00;;;;;;5128518;27;19923;-58
2023/08/27 07:10:47;;;;;;;;;;;22.80;54.00;;;;;;5105258;28;19924;-58
2023/08/27 07:13:14;;;;;;;;;;;22.80;54.00;;;;;;5106860;28;19928;-58
2023/08/27 07:15:41;;;;;;;;;;;22.80;54.10;;;;;;5093602;28;20626;-58
2023/08/27 07:18:07;;;;;;;;;;;22.80;54.10;;;;;;5094066;28;19924;-58
2023/08/27 07:20:34;;;;;;;;;;;22.80;54.10;;;;;;5115944;28;19932;-58
2023/08/27 07:23:04;;;;;;;;;;;22.80;54.10;;;;;;5104004;28;19972;-58
2023/08/27 07:25:31;;;;;;;;;;;22.80;54.10;;;;;;5127550;28;19924;-58
2023/08/27 07:27:57;;;;;;;;;;;22.80;54.10;;;;;;5098669;28;20365;-58
2023/08/27 07:30:24;;;;;;;;;;;22.80;54.10;;;;;;5100915;28;19980;-58
2023/08/27 07:32:51;;;;;;;;;;;22.80;54.10;;;;;;5104170;28;19930;-58
2023/08/27 07:35:18;;;;;;;;;;;22.80;54.20;;;;;;5116742;27;20307;-58
2023/08/27 07:37:45;;;;;;;;;;;22.80;54.20;;;;;;5119048;27;19923;-58
2023/08/27 07:40:13;;;;;;;;;;;22.80;54.20;;;;;;5121560;27;19932;-58
2023/08/27 07:42:40;;;;;;;;;;;22.80;54.20;;;;;;5106443;28;19927;-58
2023/08/27 07:45:07;;;;;;;;;;;22.80;54.20;;;;;;5126301;27;19923;-58
2023/08/27 07:47:34;;;;;;;;;;;22.80;54.30;;;;;;5108885;28;19981;-58
2023/08/27 07:50:01;;;;;;;;;;;22.80;54.20;;;;;;5117726;27;19927;-58
2023/08/27 07:52:27;;;;;;;;;;;22.80;54.30;;;;;;5100338;28;19931;-58
2023/08/27 07:54:54;;;;;;;;;;;22.80;54.30;;;;;;5102010;27;20381;-58
2023/08/27 07:57:22;;;;;;;;;;;22.90;54.40;;;;;;5114124;27;20299;-58
2023/08/27 07:59:51;;;;;;;;;;;22.80;54.40;;;;;;5108784;27;20331;-58
2023/08/27 08:02:17;;;;;;;;;;;22.90;54.50;;;;;;5131174;27;19924;-58
2023/08/27 08:04:44;;;;;;;;;;;22.90;54.50;;;;;;5133427;27;19928;-58
2023/08/27 08:07:11;;;;;;;;;;;22.90;54.50;;;;;;5108686;28;19969;-58
2023/08/27 08:09:38;;;;;;;;;;;22.90;54.60;;;;;;5112500;27;19928;-58
2023/08/27 08:12:05;;;;;;;;;;;22.90;54.60;;;;;;5129332;27;20377;-58
2023/08/27 08:14:33;;;;;;;;;;;22.90;54.60;;;;;;5103187;27;20292;-58
2023/08/27 08:17:00;;;;;;;;;;;22.90;54.60;;;;;;5105045;27;19957;-58
2023/08/27 08:19:27;;;;;;;;;;;22.90;54.60;;;;;;5107431;27;19928;-58
2023/08/27 08:21:53;;;;;;;;;;;22.90;54.60;;;;;;5101323;27;19980;-58
2023/08/27 08:24:20;;;;;;;;;;;22.90;54.70;;;;;;5096610;28;19923;-58
2023/08/27 08:26:49;;;;;;;;;;;22.90;54.70;;;;;;5099976;27;20339;-58
2023/08/27 08:29:16;;;;;;;;;;;22.90;54.70;;;;;;5108331;27;19930;-58
2023/08/27 08:31:44;;;;;;;;;;;22.90;54.70;;;;;;5117336;27;19969;-59
2023/08/27 08:34:11;;;;;;;;;;;22.90;54.70;;;;;;5100613;27;19923;-58
2023/08/27 08:36:38;;;;;;;;;;;22.90;54.80;;;;;;5122139;27;19923;-58
2023/08/27 08:39:05;;;;;;;;;;;22.90;54.80;;;;;;5099653;27;19931;-58
2023/08/27 08:41:31;;;;;;;;;;;22.90;54.80;;;;;;5106614;28;19928;-57
2023/08/27 08:43:59;;;;;;;;;;;23.00;54.90;;;;;;5102753;27;19931;-58
2023/08/27 08:46:26;;;;;;;;;;;23.00;54.90;;;;;;5098903;28;19920;-59
2023/08/27 08:48:54;;;;;;;;;;;23.00;55.00;;;;;;5112366;27;20377;-58
2023/08/27 08:51:23;;;;;;;;;;;23.00;55.00;;;;;;5110237;27;19980;-58
2023/08/27 08:53:50;;;;;;;;;;;23.00;55.00;;;;;;5099697;27;19980;-58
2023/08/27 08:56:19;;;;;;;;;;;23.00;55.00;;;;;;5110760;28;19927;-58
2023/08/27 08:58:46;;;;;;;;;;;23.00;55.10;;;;;;5125316;27;20042;-58
2023/08/27 09:01:13;;;;;;;;;;;23.00;55.10;;;;;;5109192;27;19927;-58
2023/08/27 09:03:40;;;;;;;;;;;23.00;55.10;;;;;;5106600;27;20369;-58
2023/08/27 09:06:08;;;;;;;;;;;23.00;55.10;;;;;;5106118;27;19923;-58
2023/08/27 09:08:35;;;;;;;;;;;23.00;55.10;;;;;;5095419;28;19924;-58
2023/08/27 09:11:02;;;;;;;;;;;23.00;55.20;;;;;;5110772;28;20408;-59
2023/08/27 09:13:29;;;;;;;;;;;23.10;55.30;;;;;;5097733;28;19930;-58
2023/08/27 09:15:55;;;;;;;;;;;23.00;55.20;;;;;;5106992;27;20369;-58
2023/08/27 09:18:22;;;;;;;;;;;23.10;55.40;;;;;;5094700;28;19924;-58
2023/08/27 09:20:51;;;;;;;;;;;23.10;55.60;;;;;;5112954;28;19971;-58
2023/08/27 09:23:19;;;;;;;;;;;23.00;55.60;;;;;;5114515;27;19992;-57
2023/08/27 09:25:46;;;;;;;;;;;23.10;55.70;;;;;;5095053;28;19972;-58
2023/08/27 09:28:14;;;;;;;;;;;23.00;55.80;;;;;;5095445;28;19939;-58
2023/08/27 09:30:41;;;;;;;;;;;23.00;55.80;;;;;;5094445;28;20018;-58
2023/08/27 09:33:08;;;;;;;;;;;23.00;55.90;;;;;;5089009;27;20330;-59
2023/08/27 09:35:38;;;;;;;;;;;23.00;56.10;;;;;;5100341;27;19927;-59
2023/08/27 09:38:05;;;;;;;;;;;23.00;55.90;;;;;;5118918;27;19923;-59
2023/08/27 09:40:33;;;;;;;;;;;23.00;56.00;;;;;;5102315;27;19927;-59
2023/08/27 09:43:05;;;;;;;;;;;23.00;56.10;;;;;;5094106;27;19980;-59
2023/08/27 09:45:32;;;;;;;;;;;23.00;56.10;;;;;;5103476;28;20323;-59
2023/08/27 09:47:58;;;;;;;;;;;23.00;56.20;;;;;;5132280;27;19973;-59
2023/08/27 09:50:25;;;;;;;;;;;22.90;56.20;;;;;;5122913;27;19942;-56
2023/08/27 09:52:53;;;;;;;;;;;22.90;56.20;;;;;;5107470;27;19932;-59
2023/08/27 09:55:20;;;;;;;;;;;22.90;56.10;;;;;;5112422;27;19923;-56
2023/08/27 09:57:53;;;;;;;;;;;22.90;56.10;;;;;;5104381;27;19932;-59
2023/08/27 10:00:21;;;;;;;;;;;22.90;56.10;;;;;;5101564;27;19927;-58
2023/08/27 10:02:49;;;;;;;;;;;22.90;56.10;;;;;;5096165;27;19924;-57
2023/08/27 10:05:15;;;;;;;;;;;22.90;56.10;;;;;;5100895;28;19939;-58
2023/08/27 10:07:42;;;;;;;;;;;22.90;56.20;;;;;;5097366;27;19932;-58
2023/08/27 10:10:10;;;;;;;;;;;22.90;56.10;;;;;;5095782;28;19923;-58
2023/08/27 10:12:37;;;;;;;;;;;23.00;56.10;;;;;;5099010;28;19938;-58
2023/08/27 10:15:06;;;;;;;;;;;23.00;56.10;;;;;;5097739;28;19935;-55
2023/08/27 10:17:33;;;;;;;;;;;22.90;56.10;;;;;;5105626;27;19923;-59
2023/08/27 10:20:01;;;;;;;;;;;23.00;56.10;;;;;;5088352;27;19923;-58
2023/08/27 10:22:28;;;;;;;;;;;23.00;56.20;;;;;;5093891;28;20438;-57
2023/08/27 10:24:54;;;;;;;;;;;23.00;56.10;;;;;;5094711;28;19923;-58
2023/08/27 10:27:21;;;;;;;;;;;23.00;56.10;;;;;;5101517;28;19924;-57
2023/08/27 10:29:48;;;;;;;;;;;23.00;56.10;;;;;;5102087;27;19924;-54
2023/08/27 10:32:16;;;;;;;;;;;23.00;56.10;;;;;;5123112;27;20427;-59
2023/08/27 10:34:43;;;;;;;;;;;23.00;56.10;;;;;;5094208;28;19923;-57
2023/08/27 10:37:10;;;;;;;;;;;23.00;56.00;;;;;;5099221;28;19924;-58
2023/08/27 10:39:37;;;;;;;;;;;23.00;56.00;;;;;;5120648;27;19931;-57
2023/08/27 10:42:04;;;;;;;;;;;23.00;56.00;;;;;;5091913;28;19926;-57
2023/08/27 10:44:31;;;;;;;;;;;23.00;55.80;;;;;;5110599;28;19924;-57
2023/08/27 10:47:07;;;;;;;;;;;23.00;55.70;;;;;;5115362;27;19973;-57
2023/08/27 10:49:37;;;;;;;;;;;23.00;55.70;;;;;;5111860;27;19924;-57
2023/08/27 10:52:13;;;;;;;;;;;23.00;55.70;;;;;;5099497;27;19923;-57
2023/08/27 10:54:39;;;;;;;;;;;23.00;55.70;;;;;;5105738;27;19946;-57
2023/08/27 10:57:16;;;;;;;;;;;23.00;55.30;;;;;;5092320;28;19928;-57
2023/08/27 10:59:43;;;;;;;;;;;23.00;55.20;;;;;;5091577;28;19966;-57
2023/08/27 11:02:10;;;;;;;;;;;23.00;55.20;;;;;;5112579;28;20022;-58
2023/08/27 11:04:38;;;;;;;;;;;23.00;55.10;;;;;;5105614;27;19928;-57
2023/08/27 11:07:08;;;;;;;;;;;23.00;55.10;;;;;;5097722;28;19953;-57
2023/08/27 11:09:36;;;;;;;;;;;22.90;55.00;;;;;;5110865;28;20277;-57
2023/08/27 11:12:04;;;;;;;;;;;23.00;55.10;;;;;;5098937;28;19927;-57
2023/08/27 11:14:32;;;;;;;;;;;23.00;55.10;;;;;;5109077;28;19928;-57
2023/08/27 11:17:00;;;;;;;;;;;23.00;55.10;;;;;;5123888;27;20587;-58
2023/08/27 11:19:27;;;;;;;;;;;22.90;55.00;;;;;;5095941;28;19932;-58
2023/08/27 11:21:56;;;;;;;;;;;22.90;55.00;;;;;;5094030;28;19923;-57
2023/08/27 11:24:23;;;;;;;;;;;23.00;54.70;;;;;;5092438;28;19989;-58
2023/08/27 11:26:50;;;;;;;;;;;22.90;54.60;;;;;;5103835;28;19974;-58
2023/08/27 11:29:17;;;;;;;;;;;22.90;54.60;;;;;;5094284;28;19927;-60
2023/08/27 11:31:44;;;;;;;;;;;22.90;54.60;;;;;;5097725;28;20026;-58
2023/08/27 11:34:11;;;;;;;;;;;22.90;54.50;;;;;;5097595;28;20305;-57
2023/08/27 11:36:38;;;;;;;;;;;23.00;54.70;;;;;;5088444;28;19924;-57
2023/08/27 11:39:07;;;;;;;;;;;23.00;54.80;;;;;;5116353;28;19923;-56
2023/08/27 11:41:34;;;;;;;;;;;23.00;54.80;;;;;;5090218;28;19924;-57
2023/08/27 11:44:02;;;;;;;;;;;23.00;54.90;;;;;;5094668;28;19931;-57
2023/08/27 11:46:29;;;;;;;;;;;23.00;55.00;;;;;;5097979;28;20010;-57
2023/08/27 11:48:56;;;;;;;;;;;23.00;55.10;;;;;;5110819;28;19924;-57
2023/08/27 11:51:23;;;;;;;;;;;23.00;55.10;;;;;;5097566;28;19931;-57
2023/08/27 11:53:51;;;;;;;;;;;23.10;55.20;;;;;;5108442;28;19924;-57
2023/08/27 11:56:19;;;;;;;;;;;23.10;55.20;;;;;;5093838;28;19924;-56
2023/08/27 11:58:46;;;;;;;;;;;23.10;55.30;;;;;;5104679;28;19978;-57
2023/08/27 12:01:12;;;;;;;;;;;23.10;55.30;;;;;;5103788;28;19924;-57
2023/08/27 12:03:39;;;;;;;;;;;23.10;55.30;;;;;;5088793;28;19924;-57
2023/08/27 12:06:06;;;;;;;;;;;23.10;55.30;;;;;;5094720;28;20284;-57
2023/08/27 12:08:36;;;;;;;;;;;23.10;55.30;;;;;;5121416;27;19947;-57
2023/08/27 12:11:04;;;;;;;;;;;23.10;55.40;;;;;;5106939;28;20135;-57
2023/08/27 12:13:32;;;;;;;;;;;23.20;55.40;;;;;;5094872;28;19923;-56
2023/08/27 12:16:00;;;;;;;;;;;23.20;55.40;;;;;;5107816;28;19935;-60
2023/08/27 12:18:32;;;;;;;;;;;23.20;55.40;;;;;;5116548;28;19928;-60
2023/08/27 12:21:03;;;;;;;;;;;23.20;55.60;;;;;;5113451;27;19927;-60
2023/08/27 12:23:33;;;;;;;;;;;23.20;56.10;;;;;;5120577;27;19935;-60
2023/08/27 12:26:00;;;;;;;;;;;23.10;56.40;;;;;;5121959;27;19927;-60
2023/08/27 12:28:26;;;;;;;;;;;23.10;56.80;;;;;;5100385;27;20331;-60
2023/08/27 12:30:58;;;;;;;;;;;23.10;57.10;;;;;;5098841;28;19931;-60
2023/08/27 12:33:35;;;;;;;;;;;23.10;57.50;;;;;;5101698;28;19928;-60
2023/08/27 12:36:04;;;;;;;;;;;23.10;57.30;;;;;;5093424;28;20375;-59
2023/08/27 12:38:31;;;;;;;;;;;23.00;57.50;;;;;;5098949;28;19923;-60
2023/08/27 12:40:57;;;;;;;;;;;23.00;57.50;;;;;;5096074;27;19927;-59
2023/08/27 12:43:24;;;;;;;;;;;22.90;57.60;;;;;;5103734;28;19923;-60
2023/08/27 12:45:51;;;;;;;;;;;22.90;57.90;;;;;;5095059;27;19973;-60
2023/08/27 12:48:19;;;;;;;;;;;22.90;57.80;;;;;;5124393;27;19945;-60
2023/08/27 12:50:46;;;;;;;;;;;22.90;57.90;;;;;;5099706;27;19924;-59
2023/08/27 12:53:13;;;;;;;;;;;22.80;57.90;;;;;;5096904;27;19923;-59
2023/08/27 12:55:40;;;;;;;;;;;22.80;58.00;;;;;;5113271;27;20437;-60
2023/08/27 12:58:06;;;;;;;;;;;22.80;58.10;;;;;;5112058;27;19935;-60
2023/08/27 13:00:33;;;;;;;;;;;22.80;58.30;;;;;;5125522;27;19928;-59
2023/08/27 13:03:00;;;;;;;;;;;22.70;58.40;;;;;;5096647;27;19923;-60
2023/08/27 13:05:28;;;;;;;;;;;22.70;58.50;;;;;;5099021;28;19924;-59
2023/08/27 13:08:00;;;;;;;;;;;22.70;58.50;;;;;;5093965;28;19923;-60
2023/08/27 13:10:27;;;;;;;;;;;22.70;58.40;;;;;;5091806;28;19981;-60
2023/08/27 13:12:53;;;;;;;;;;;22.70;58.30;;;;;;5104358;27;19923;-60
2023/08/27 13:15:21;;;;;;;;;;;22.60;58.30;;;;;;5083859;28;19928;-60
2023/08/27 13:17:48;;;;;;;;;;;22.60;58.40;;;;;;5097336;27;20014;-60
2023/08/27 13:20:15;;;;;;;;;;;22.60;58.40;;;;;;5122783;27;19930;-60
2023/08/27 13:22:44;;;;;;;;;;;22.60;58.70;;;;;;5097605;28;19942;-60
2023/08/27 13:25:12;;;;;;;;;;;22.60;58.90;;;;;;5096170;27;19924;-60
2023/08/27 13:27:39;;;;;;;;;;;22.60;59.20;;;;;;5097817;28;19928;-59
2023/08/27 13:30:06;;;;;;;;;;;22.60;59.10;;;;;;5111929;27;19931;-59
2023/08/27 13:32:33;;;;;;;;;;;22.50;59.20;;;;;;5092103;28;19930;-59
2023/08/27 13:35:00;;;;;;;;;;;22.50;59.30;;;;;;5098287;27;19928;-60
2023/08/27 13:37:27;;;;;;;;;;;22.50;59.40;;;;;;5102267;27;19927;-59
2023/08/27 13:39:55;;;;;;;;;;;22.50;59.60;;;;;;5127013;27;19931;-60
2023/08/27 13:42:21;;;;;;;;;;;22.50;59.60;;;;;;5086986;28;20343;-60
2023/08/27 13:44:48;;;;;;;;;;;22.50;59.50;;;;;;5090683;28;19940;-59
2023/08/27 13:47:15;;;;;;;;;;;22.50;59.50;;;;;;5089180;28;19923;-60
2023/08/27 13:49:42;;;;;;;;;;;22.50;59.30;;;;;;5092602;28;19924;-59
2023/08/27 13:52:09;;;;;;;;;;;22.50;59.30;;;;;;5090034;27;19934;-61
2023/08/27 13:54:36;;;;;;;;;;;22.60;58.90;;;;;;5123017;27;19924;-60
2023/08/27 13:57:04;;;;;;;;;;;22.50;58.70;;;;;;5103466;27;19931;-62
2023/08/27 13:59:32;;;;;;;;;;;22.50;58.30;;;;;;5092317;28;19928;-60
2023/08/27 14:01:58;;;;;;;;;;;22.50;58.40;;;;;;5095119;27;19990;-61
2023/08/27 14:04:25;;;;;;;;;;;22.50;58.70;;;;;;5089621;28;19931;-59
2023/08/27 14:06:52;;;;;;;;;;;22.50;58.40;;;;;;5131295;27;19927;-61
2023/08/27 14:09:20;;;;;;;;;;;22.50;58.10;;;;;;5110781;27;19932;-61
2023/08/27 14:11:46;;;;;;;;;;;22.50;58.30;;;;;;5099764;28;19934;-60
2023/08/27 14:14:15;;;;;;;;;;;22.50;58.30;;;;;;5091261;28;19928;-60
2023/08/27 14:16:41;;;;;;;;;;;22.50;58.40;;;;;;5099687;27;19968;-60